Главная страница
METAR-TAF:

METAR-TAF

Аэропорты :

Душанбе, Таджикистан

широта: 38-33N, долгота: 068-47E, высота над уровнем моря: 803 м

Текущие метеонаблюдения

Эта сводка был подготовлена 28 минут назад, в 03:30 UTC
Штиль
Температура 3°C
Влажность 65%
Давление 1015 hPa
Видимость: 4300 м
дым

METAR: UTDD 240330Z 00000MPS 4300 FU NSC 03/M03 Q1015 R09/D NOSIG RMK QFE693/0924

Время: 08:58 (03:58 UTC)

Прогноз

Эта сводка был подготовлена 58 минут назад, в 03:00 UTC
Прогноз действительный с 24-го 04 UTC до 24-го 16 UTC
Ветер 4 Узел переменных направлений
Видимость: 3300 м
небольшая облачность на высоте 6600 фута, Кучево-дождевые.
Отдельные облака на высоте 13000 фута
дымка, дым
временами
С 24-го 04 UTC до 24-го 07 UTC
Видимость: 1500 м
дымка, дым

TAF: UTDD 240300Z 2404/2416 VRB02MPS 3300 BR FU FEW066CB SCT130 TEMPO 2404/2407 1500 BR FU

Метеонаблюдения и прогнозы для более 4000 аэропортов (сводки METAR и TAF).

Имеющиеся станции представлены на карте желтыми и красными точками.

Чтобы увидеть название станции, наведите на нее мышь.

Затем щелкните, чтобы увидеть метеонаблюдения и метеопрогнозы.

Управление картой: чтобы увеличить масштаб, щелкните зеленые кнопки с черным крестиком; чтобы уменьшить масштаб, щелкните зеленую кнопку с тире; для просмотра соседних карт щелкайте зеленые стрелки.


METAR-TAF: